Alvin, TX (77512)

3:18 AM CDT on April 27, 2015 (GMT -0500)
Texas Gulf flat lands. | | Change Station
CLOSE
Current Station
Personal Weather Station
Location: Alvin, TX
Elevation: 69 ft
Nearby Weather Stations
Active Advisory: Flood Warning Active Notice: Local Storm Report

Elev 69 ft 29.42 °N, 95.25 °W | Updated 9 minutes ago

Overcast
Overcast
74.7 °F
Feels Like 74 °F
N
0.0
Wind Variable Wind from NNW

Today
High -- | Low -- °F
--% Chance of Precip.
Yesterday
High -- | Low -- °F
Precip. -- in
6:42 AM 7:54 PM
Waxing Gibbous, 63% visible
Pressure 29.61 in
Visibility 6.0 miles
Clouds Overcast 800 ft
Heat Index 74 °F
Dew Point 71 °F
Humidity 89%
Rainfall 0.00 in
Snow Depth Not available.
UV 0 out of 12
Pollen 7.50 out of 12
Air Quality Not available.
Flu Activity Local Activity
METAR KLVJ 270753Z AUTO 09006KT 6SM BR OVC008 24/23 A2961 RMK AO2 SLP025 T02440228

More Conditions Fewer Conditions

Pressure 29.61 in
Visibility 6.0 miles
Clouds Overcast 800 ft
Heat Index 74 °F
Dew Point 71 °F
Humidity 89%
Rainfall 0.00 in
Snow Depth Not available.
UV 0 out of 12
Pollen 7.50 out of 12
Air Quality Not available.
Flu Activity Local Activity
METAR KLVJ 270753Z AUTO 09006KT 6SM BR OVC008 24/23 A2961 RMK AO2 SLP025 T02440228

More Conditions Fewer Conditions

10-Day Weather Forecast

Almanac

Astronomy

Apr. 27, 2015 Rise Set
Actual Time
Civil Twilight
Nautical Twilight
Astronomical Twilight
Moon
Length of Visible Light
Length of Day
Tomorrow will be .
, % of the Moon is Illuminated

Today's Extremes

State Highs State Lows

Community

WunderPhotos

Upload Photos

1,817,277 photos uploaded!

WunderBlogs® & News

Nearby

Air Quality

  Air Quality AQ Index Pollutant
Not available.

Snow Depth

Station Depth Elevation

Earthquake Activity

City Distance Mag. Time & Date
Minimum magnitude displayed is 2.5.

Coastal Water Temperatures

Place Temperature

Stations

Nearby Weather Stations

Station Location Temp. Windchill Dew Point Humidity Wind Precip. Elev Updated Type
                   
Flood Warning
Statement as of 2:40 AM CDT on April 27, 2015

The National Weather Service in Houston/Galveston has issued a

* Flood Warning for
the San Bernard River near Boling.
* Until Wednesday afternoon... or until the warning is canceled.
* At 0215 am Monday the stage was 18.6 feet.
* Minor flooding is occurring and minor flooding is forecast.
* Flood stage is 18.0 feet.
* Forecast... the river will continue rising to near 21.8 feet by this evening.
The river will fall below flood stage Wednesday morning.
* At 22.0 feet... moderate lowland flooding begins upstream from the gage with
significant backwater flooding up Peach Creek in Wharton County inundating low
lying areas. Minor backwater flooding up Snake Creek in Fort Bend County
begins.


Lat... Lon 2940 9592 2930 9584 2913 9566 2913 9577 2930 9595 2940 9605